createdAt,value
2023-03-13T00:01:30.100Z,1.03
2023-03-13T00:03:57.685Z,0.50
2023-03-13T00:06:27.305Z,1.80
2023-03-13T00:08:55.203Z,0.40
2023-03-13T00:11:22.271Z,0.87
2023-03-13T00:13:53.903Z,0.30
2023-03-13T00:16:21.344Z,0.50
2023-03-13T00:18:51.168Z,0.50
2023-03-13T00:21:20.644Z,0.43
2023-03-13T00:23:48.825Z,0.50
2023-03-13T00:26:18.422Z,0.70
2023-03-13T00:28:46.187Z,0.50
2023-03-13T00:31:22.282Z,1.63
2023-03-13T00:33:52.735Z,0.40
2023-03-13T00:36:25.648Z,0.40
2023-03-13T00:38:54.685Z,0.20
2023-03-13T00:41:24.663Z,0.60
2023-03-13T00:43:52.068Z,0.60
2023-03-13T00:46:22.463Z,2.10
2023-03-13T00:48:50.162Z,0.97
2023-03-13T00:51:19.104Z,0.30
2023-03-13T00:53:46.900Z,0.50
2023-03-13T00:56:16.926Z,3.60
2023-03-13T00:58:45.811Z,0.60
2023-03-13T01:01:25.320Z,0.90
2023-03-13T01:03:55.313Z,0.53
2023-03-13T01:06:26.126Z,0.53
2023-03-13T01:08:53.913Z,0.60
2023-03-13T01:11:23.395Z,0.53
2023-03-13T01:13:53.767Z,0.47
2023-03-13T01:16:23.275Z,0.50
2023-03-13T01:18:53.460Z,0.67
2023-03-13T01:21:22.699Z,3.70
2023-03-13T01:23:51.434Z,1.83
2023-03-13T01:26:19.810Z,0.57
2023-03-13T01:28:47.602Z,2.10
2023-03-13T01:31:19.104Z,1.47
2023-03-13T01:33:47.865Z,1.17
2023-03-13T01:36:15.680Z,1.20
2023-03-13T01:38:43.138Z,0.50
2023-03-13T01:41:12.429Z,0.50
2023-03-13T01:43:40.231Z,0.43
2023-03-13T01:46:21.684Z,0.50
2023-03-13T01:49:26.266Z,0.70
2023-03-13T01:51:58.800Z,0.77
2023-03-13T01:54:35.731Z,0.33
2023-03-13T01:57:32.081Z,0.53
2023-03-13T02:00:02.978Z,1.00
2023-03-13T02:02:30.935Z,0.67
2023-03-13T02:05:03.334Z,0.43
2023-03-13T02:07:53.905Z,0.60
2023-03-13T02:10:22.463Z,0.97
2023-03-13T02:12:50.199Z,0.53
2023-03-13T02:15:19.967Z,0.60
2023-03-13T02:17:48.621Z,0.30
2023-03-13T02:20:17.768Z,0.50
2023-03-13T02:23:07.904Z,0.50
2023-03-13T02:25:45.810Z,0.60
2023-03-13T02:28:22.942Z,0.97
2023-03-13T02:30:52.101Z,0.67
2023-03-13T02:33:21.364Z,0.70
2023-03-13T02:35:49.925Z,0.60
2023-03-13T02:38:23.908Z,0.57
2023-03-13T02:40:52.599Z,0.73
2023-03-13T02:43:32.435Z,0.63
2023-03-13T02:46:16.270Z,0.40
2023-03-13T02:48:46.203Z,1.13
2023-03-13T02:51:35.801Z,0.73
2023-03-13T02:54:10.763Z,0.50
2023-03-13T02:56:41.693Z,0.93
2023-03-13T02:59:09.084Z,1.37
2023-03-13T03:01:36.140Z,0.50
2023-03-13T03:04:03.513Z,1.20
2023-03-13T03:06:30.607Z,1.70
2023-03-13T03:08:57.681Z,0.33
2023-03-13T03:11:24.864Z,0.43
2023-03-13T03:13:52.011Z,0.30
2023-03-13T03:16:20.966Z,1.00
2023-03-13T03:18:48.437Z,0.50
2023-03-13T03:21:15.583Z,0.60
2023-03-13T03:23:42.663Z,1.03
2023-03-13T03:26:10.160Z,0.43
2023-03-13T03:28:37.230Z,0.80
2023-03-13T03:31:06.258Z,0.40
2023-03-13T03:33:33.517Z,0.93
2023-03-13T03:36:07.546Z,0.63
2023-03-13T03:38:35.176Z,0.50
2023-03-13T03:41:02.518Z,0.40
2023-03-13T03:43:29.919Z,1.07
2023-03-13T03:45:57.679Z,0.67
2023-03-13T03:48:25.106Z,0.50
2023-03-13T03:50:52.308Z,1.00
2023-03-13T03:53:19.377Z,0.30
2023-03-13T03:55:46.875Z,0.40
2023-03-13T03:58:14.315Z,0.70
2023-03-13T04:00:44.945Z,1.83
2023-03-13T04:03:13.058Z,0.93
2023-03-13T04:05:40.838Z,0.53
2023-03-13T04:08:09.202Z,1.03
2023-03-13T04:10:37.111Z,0.40
2023-03-13T04:13:04.455Z,1.00
2023-03-13T04:15:31.564Z,0.60
2023-03-13T04:17:58.674Z,0.70
2023-03-13T04:20:26.089Z,0.30
2023-03-13T04:22:53.526Z,1.17
2023-03-13T04:25:21.140Z,0.50
2023-03-13T04:27:48.626Z,0.50
2023-03-13T04:30:18.273Z,0.43
2023-03-13T04:32:46.245Z,0.50
2023-03-13T04:35:13.905Z,0.43
2023-03-13T04:37:41.324Z,0.47
2023-03-13T04:40:09.259Z,0.47
2023-03-13T04:42:36.607Z,0.50
2023-03-13T04:45:03.929Z,0.70
2023-03-13T04:47:31.000Z,3.70
2023-03-13T04:49:58.405Z,0.50
2023-03-13T04:52:25.545Z,0.43
2023-03-13T04:54:52.844Z,0.40
2023-03-13T04:57:20.029Z,0.40
2023-03-13T04:59:47.202Z,0.40
2023-03-13T05:02:14.342Z,0.40
2023-03-13T05:04:41.476Z,0.40
2023-03-13T05:07:08.586Z,0.30
2023-03-13T05:09:35.893Z,0.70
2023-03-13T05:12:03.338Z,0.90
2023-03-13T05:14:30.508Z,1.70
2023-03-13T05:16:57.557Z,0.47
2023-03-13T05:19:24.988Z,0.40
2023-03-13T05:21:52.495Z,0.47
2023-03-13T05:24:19.664Z,0.60
2023-03-13T05:26:46.758Z,0.40
2023-03-13T05:29:13.835Z,1.37
2023-03-13T05:31:40.967Z,0.90
2023-03-13T05:34:08.354Z,1.83
2023-03-13T05:36:35.784Z,0.40
2023-03-13T05:39:03.444Z,0.47
2023-03-13T05:41:30.883Z,0.30
2023-03-13T05:43:58.236Z,0.30
2023-03-13T05:46:25.649Z,0.33
2023-03-13T05:48:53.297Z,0.77
2023-03-13T05:51:20.705Z,0.50
2023-03-13T05:53:48.004Z,0.37
2023-03-13T05:56:15.349Z,0.60
2023-03-13T05:58:42.704Z,0.40
2023-03-13T06:01:12.015Z,0.40
2023-03-13T06:03:39.406Z,0.93
2023-03-13T06:06:07.057Z,1.20
2023-03-13T06:08:34.210Z,0.60
2023-03-13T06:11:03.591Z,0.60
2023-03-13T06:13:31.068Z,1.30
2023-03-13T06:15:58.783Z,0.77
2023-03-13T06:18:27.225Z,0.60
2023-03-13T06:21:02.018Z,1.67
2023-03-13T06:23:29.909Z,0.47
2023-03-13T06:25:57.062Z,0.67
2023-03-13T06:28:24.628Z,0.30
2023-03-13T06:30:52.107Z,0.50
2023-03-13T06:33:19.453Z,0.90
2023-03-13T06:35:56.239Z,1.27
2023-03-13T06:38:28.263Z,0.53
2023-03-13T06:40:56.026Z,0.57
2023-03-13T06:43:23.525Z,0.40
2023-03-13T06:45:50.785Z,1.33
2023-03-13T06:48:19.087Z,0.50
2023-03-13T06:50:46.418Z,0.70
2023-03-13T06:53:17.272Z,1.37
2023-03-13T06:55:45.517Z,0.40
2023-03-13T06:58:28.828Z,0.70
2023-03-13T07:00:58.217Z,1.80
2023-03-13T07:03:25.836Z,2.20
2023-03-13T07:05:57.563Z,0.90
2023-03-13T07:08:25.952Z,0.50
2023-03-13T07:10:54.362Z,1.17
2023-03-13T07:13:22.416Z,0.53
2023-03-13T07:15:50.033Z,1.70
2023-03-13T07:18:17.834Z,0.60
2023-03-13T07:20:45.114Z,0.50
2023-03-13T07:23:12.423Z,4.23
2023-03-13T07:25:39.921Z,1.33
2023-03-13T07:28:07.059Z,1.13
2023-03-13T07:30:34.159Z,0.50
2023-03-13T07:33:01.346Z,0.90
2023-03-13T07:35:28.509Z,0.30
2023-03-13T07:37:55.611Z,0.67
2023-03-13T07:40:22.699Z,1.40
2023-03-13T07:42:49.848Z,0.63
2023-03-13T07:45:17.096Z,0.73
2023-03-13T07:47:44.440Z,0.40
2023-03-13T07:50:12.557Z,0.43
2023-03-13T07:52:40.055Z,0.37
2023-03-13T07:55:08.112Z,0.40
2023-03-13T07:57:35.343Z,0.57
2023-03-13T08:00:06.144Z,0.87
2023-03-13T08:02:34.351Z,0.47
2023-03-13T08:05:01.444Z,0.63
2023-03-13T08:07:28.490Z,0.50
2023-03-13T08:09:55.649Z,1.93
2023-03-13T08:12:22.851Z,0.53
2023-03-13T08:14:49.983Z,0.50
2023-03-13T08:17:17.239Z,0.63
2023-03-13T08:19:44.621Z,0.50
2023-03-13T08:22:11.989Z,0.40
2023-03-13T08:24:39.456Z,0.70
2023-03-13T08:27:06.940Z,1.47
2023-03-13T08:29:34.348Z,1.37
2023-03-13T08:32:01.458Z,0.63
2023-03-13T08:34:28.789Z,1.87
2023-03-13T08:36:57.088Z,1.20
2023-03-13T08:39:24.597Z,0.93
2023-03-13T08:41:52.260Z,0.67
2023-03-13T08:44:20.701Z,1.23
2023-03-13T08:46:49.513Z,0.43
2023-03-13T08:49:18.049Z,0.63
2023-03-13T08:51:45.296Z,0.40
2023-03-13T08:54:12.580Z,0.50
2023-03-13T08:56:41.074Z,0.70
2023-03-13T08:59:08.217Z,0.60
2023-03-13T09:01:37.124Z,0.50
2023-03-13T09:04:05.592Z,0.50
2023-03-13T09:06:34.251Z,0.83
2023-03-13T09:09:02.117Z,1.00
2023-03-13T09:11:29.646Z,1.33
2023-03-13T09:13:59.497Z,0.80
2023-03-13T09:16:31.817Z,1.90
2023-03-13T09:19:00.045Z,0.60
2023-03-13T09:21:32.892Z,1.13
2023-03-13T09:24:00.410Z,1.47
2023-03-13T09:26:28.055Z,2.23
2023-03-13T09:28:56.024Z,0.60
2023-03-13T09:31:24.425Z,1.27
2023-03-13T09:33:52.232Z,0.87
2023-03-13T09:36:22.370Z,1.60
2023-03-13T09:38:51.892Z,0.60
2023-03-13T09:41:25.519Z,2.73
2023-03-13T09:43:59.798Z,0.73
2023-03-13T09:46:38.446Z,0.97
2023-03-13T09:49:36.428Z,1.50
2023-03-13T09:52:14.584Z,0.93
2023-03-13T09:55:04.802Z,1.53
2023-03-13T09:57:50.447Z,1.00
2023-03-13T10:00:40.556Z,0.67
2023-03-13T10:03:28.052Z,2.10
2023-03-13T10:06:07.221Z,0.83
2023-03-13T10:08:36.705Z,1.17
2023-03-13T10:11:12.040Z,1.43
2023-03-13T10:14:02.959Z,1.27
2023-03-13T10:17:10.834Z,0.60
2023-03-13T10:19:43.574Z,1.00
2023-03-13T10:22:18.772Z,1.00
2023-03-13T10:24:53.925Z,1.87
2023-03-13T10:27:21.034Z,2.23
2023-03-13T10:29:48.416Z,1.13
2023-03-13T10:32:17.826Z,0.97
2023-03-13T10:35:01.015Z,0.87
2023-03-13T10:37:31.252Z,0.70
2023-03-13T10:40:25.494Z,0.53
2023-03-13T10:43:01.242Z,0.50
2023-03-13T10:45:33.201Z,2.20
2023-03-13T10:48:13.867Z,0.50
2023-03-13T10:50:46.615Z,1.07
2023-03-13T10:53:33.305Z,0.87
2023-03-13T10:56:13.280Z,0.47
2023-03-13T10:58:52.334Z,0.70
2023-03-13T11:01:34.536Z,0.50
2023-03-13T11:04:35.719Z,0.83
2023-03-13T11:07:06.169Z,0.83
2023-03-13T11:09:34.038Z,0.93
2023-03-13T11:12:10.178Z,0.97
2023-03-13T11:14:37.971Z,0.70
2023-03-13T11:17:14.090Z,1.80
2023-03-13T11:20:20.754Z,1.47
2023-03-13T11:23:16.446Z,0.70
2023-03-13T11:26:06.847Z,0.70
2023-03-13T11:29:11.777Z,0.67
2023-03-13T11:31:48.718Z,1.50
2023-03-13T11:34:21.785Z,1.00
2023-03-13T11:37:13.414Z,0.90
2023-03-13T11:39:59.158Z,1.33
2023-03-13T11:42:47.475Z,0.80
2023-03-13T11:45:27.654Z,1.33
2023-03-13T11:48:19.420Z,0.90
2023-03-13T11:51:07.998Z,0.90
2023-03-13T11:53:58.318Z,1.00
2023-03-13T11:56:45.754Z,0.70
2023-03-13T11:59:40.383Z,0.83
2023-03-13T12:02:40.299Z,0.80
2023-03-13T12:05:11.166Z,0.83
2023-03-13T12:07:59.709Z,0.90
2023-03-13T12:10:51.425Z,0.87
2023-03-13T12:13:33.001Z,0.70
2023-03-13T12:16:07.182Z,0.73
2023-03-13T12:18:41.028Z,0.73
2023-03-13T12:21:23.269Z,1.07
2023-03-13T12:24:13.597Z,0.60
2023-03-13T12:26:48.911Z,1.00
2023-03-13T12:29:25.054Z,0.50
2023-03-13T12:32:04.857Z,0.60
2023-03-13T12:34:59.217Z,1.90
2023-03-13T12:37:35.106Z,0.70
2023-03-13T12:40:12.082Z,0.80
2023-03-13T12:42:58.017Z,0.60
2023-03-13T12:45:26.737Z,0.90
2023-03-13T12:48:09.596Z,0.77
2023-03-13T12:51:03.277Z,0.70
2023-03-13T12:53:49.776Z,1.30
2023-03-13T12:56:47.605Z,0.90
2023-03-13T12:59:25.395Z,0.67
2023-03-13T13:01:56.734Z,0.87
2023-03-13T13:04:31.334Z,0.70
2023-03-13T13:07:18.483Z,0.90
2023-03-13T13:10:05.179Z,1.23
2023-03-13T13:12:32.668Z,0.93
2023-03-13T13:15:12.526Z,1.20
2023-03-13T13:17:39.860Z,1.10
2023-03-13T13:20:25.864Z,0.80
2023-03-13T13:22:54.445Z,0.80
2023-03-13T13:25:32.775Z,1.03
2023-03-13T13:28:27.734Z,1.10
2023-03-13T13:30:56.465Z,0.90
2023-03-13T13:33:31.186Z,0.90
2023-03-13T13:36:10.718Z,1.13
2023-03-13T13:38:42.536Z,1.50
2023-03-13T13:41:10.202Z,0.77
2023-03-13T13:43:45.614Z,1.13
2023-03-13T13:46:45.512Z,1.17
2023-03-13T13:49:21.265Z,1.30
2023-03-13T13:52:32.509Z,1.53
2023-03-13T13:55:00.095Z,1.20
2023-03-13T13:57:37.349Z,1.60
2023-03-13T14:00:22.245Z,1.20
2023-03-13T14:02:54.951Z,1.53
2023-03-13T14:05:28.454Z,1.27
2023-03-13T14:08:14.399Z,1.27
2023-03-13T14:11:05.069Z,1.60
2023-03-13T14:13:32.477Z,1.27
2023-03-13T14:16:24.364Z,1.50
2023-03-13T14:18:53.264Z,1.17
2023-03-13T14:21:25.012Z,1.67
2023-03-13T14:23:55.552Z,1.50
2023-03-13T14:26:27.705Z,1.50
2023-03-13T14:28:58.474Z,1.50
2023-03-13T14:31:30.424Z,1.53
2023-03-13T14:34:00.150Z,1.50
2023-03-13T14:36:28.114Z,1.23
2023-03-13T14:38:57.643Z,1.40
2023-03-13T14:41:32.781Z,1.33
2023-03-13T14:44:14.335Z,1.20
2023-03-13T14:46:43.538Z,1.30
2023-03-13T14:49:25.658Z,1.50
2023-03-13T14:52:02.579Z,1.30
2023-03-13T14:54:38.419Z,1.10
2023-03-13T14:57:10.320Z,1.13
2023-03-13T14:59:37.868Z,1.10
2023-03-13T15:02:28.501Z,1.30
2023-03-13T15:04:59.649Z,1.10
2023-03-13T15:07:39.361Z,0.77
2023-03-13T15:10:31.491Z,1.13
2023-03-13T15:12:59.047Z,0.90
2023-03-13T15:15:26.275Z,0.97
2023-03-13T15:17:53.859Z,0.83
2023-03-13T15:20:23.237Z,1.00
2023-03-13T15:22:50.364Z,0.90
2023-03-13T15:25:20.706Z,0.90
2023-03-13T15:27:49.379Z,0.80
2023-03-13T15:30:23.831Z,1.30
2023-03-13T15:32:52.107Z,0.77
2023-03-13T15:35:29.055Z,1.30
2023-03-13T15:37:57.841Z,0.90
2023-03-13T15:40:25.865Z,0.73
2023-03-13T15:42:54.127Z,1.00
2023-03-13T15:45:22.255Z,0.80
2023-03-13T15:47:50.185Z,0.70
2023-03-13T15:50:20.097Z,1.00
2023-03-13T15:52:47.391Z,0.80
2023-03-13T15:55:15.949Z,0.87
2023-03-13T15:57:47.285Z,0.80
2023-03-13T16:00:24.405Z,0.70
2023-03-13T16:02:51.946Z,0.93
2023-03-13T16:05:19.335Z,0.73
2023-03-13T16:07:46.792Z,0.90
2023-03-13T16:10:26.525Z,0.90
2023-03-13T16:12:54.805Z,0.83
2023-03-13T16:15:22.011Z,0.60
2023-03-13T16:17:49.189Z,0.73
2023-03-13T16:20:22.380Z,1.00
2023-03-13T16:22:52.960Z,0.70
2023-03-13T16:25:20.794Z,1.23
2023-03-13T16:27:48.441Z,0.87
2023-03-13T16:30:28.332Z,0.93
2023-03-13T16:32:56.094Z,0.70
2023-03-13T16:35:26.833Z,0.80
2023-03-13T16:37:58.326Z,1.17
2023-03-13T16:40:28.369Z,0.90
2023-03-13T16:42:55.761Z,1.00
2023-03-13T16:45:23.504Z,0.83
2023-03-13T16:47:51.067Z,1.27
2023-03-13T16:50:23.984Z,1.10
2023-03-13T16:52:52.436Z,3.00
2023-03-13T16:55:20.051Z,4.93
2023-03-13T16:57:47.703Z,21.50
2023-03-13T17:00:20.649Z,6.37
2023-03-13T17:02:48.711Z,1.40
2023-03-13T17:05:17.639Z,1.20
2023-03-13T17:07:48.019Z,1.23
2023-03-13T17:10:33.577Z,1.20
2023-03-13T17:13:00.904Z,1.27
2023-03-13T17:15:29.045Z,1.40
2023-03-13T17:17:56.264Z,1.10
2023-03-13T17:20:26.624Z,1.53
2023-03-13T17:22:56.434Z,2.67
2023-03-13T17:25:24.078Z,1.27
2023-03-13T17:27:51.589Z,0.90
2023-03-13T17:30:24.116Z,1.57
2023-03-13T17:32:51.750Z,1.13
2023-03-13T17:35:20.562Z,1.27
2023-03-13T17:37:49.103Z,2.13
2023-03-13T17:40:25.462Z,1.43
2023-03-13T17:42:52.831Z,1.53
2023-03-13T17:45:20.279Z,1.07
2023-03-13T17:47:49.336Z,1.90
2023-03-13T17:50:21.361Z,2.27
2023-03-13T17:52:49.026Z,1.90
2023-03-13T17:55:16.225Z,2.43
2023-03-13T17:57:43.966Z,1.97
2023-03-13T18:00:25.721Z,1.37
2023-03-13T18:02:53.002Z,1.90
2023-03-13T18:05:20.522Z,2.30
2023-03-13T18:07:48.786Z,2.90
2023-03-13T18:10:27.390Z,3.40
2023-03-13T18:12:55.254Z,3.43
2023-03-13T18:15:25.269Z,3.20
2023-03-13T18:17:54.446Z,2.30
2023-03-13T18:20:24.829Z,2.60
2023-03-13T18:22:52.175Z,2.30
2023-03-13T18:25:19.848Z,2.63
2023-03-13T18:27:47.061Z,2.40
2023-03-13T18:30:17.593Z,2.60
2023-03-13T18:32:45.505Z,2.00
2023-03-13T18:35:16.335Z,2.57
2023-03-13T18:37:46.843Z,1.70
2023-03-13T18:40:23.057Z,2.00
2023-03-13T18:42:50.972Z,1.70
2023-03-13T18:45:20.747Z,1.90
2023-03-13T18:47:48.520Z,2.03
2023-03-13T18:50:24.888Z,2.40
2023-03-13T18:52:56.951Z,2.93
2023-03-13T18:55:26.286Z,2.57
2023-03-13T18:57:53.886Z,3.33
2023-03-13T19:00:24.471Z,3.30
2023-03-13T19:02:52.444Z,3.57
2023-03-13T19:05:20.648Z,3.43
2023-03-13T19:07:48.104Z,3.30
2023-03-13T19:10:41.725Z,4.27
2023-03-13T19:13:08.872Z,4.80
2023-03-13T19:15:37.996Z,4.87
2023-03-13T19:18:05.210Z,3.67
2023-03-13T19:20:32.643Z,4.10
2023-03-13T19:23:00.937Z,3.77
2023-03-13T19:25:29.464Z,6.23
2023-03-13T19:27:58.047Z,4.53
2023-03-13T19:30:26.721Z,5.40
2023-03-13T19:32:54.316Z,4.80
2023-03-13T19:35:22.406Z,4.53
2023-03-13T19:37:55.125Z,5.80
2023-03-13T19:40:26.006Z,5.37
2023-03-13T19:42:53.441Z,6.10
2023-03-13T19:45:22.280Z,5.63
2023-03-13T19:47:50.529Z,6.07
2023-03-13T19:50:21.253Z,5.83
2023-03-13T19:52:49.356Z,6.30
2023-03-13T19:55:17.580Z,5.10
2023-03-13T19:57:45.148Z,5.87
2023-03-13T20:00:32.890Z,6.87
2023-03-13T20:03:00.383Z,5.70
2023-03-13T20:05:27.888Z,5.87
2023-03-13T20:07:55.885Z,6.17
2023-03-13T20:10:23.812Z,6.33
2023-03-13T20:12:50.922Z,7.73
2023-03-13T20:15:18.428Z,6.60
2023-03-13T20:17:45.848Z,7.67
2023-03-13T20:20:14.013Z,11.17
2023-03-13T20:22:41.518Z,6.87
2023-03-13T20:25:10.121Z,9.53
2023-03-13T20:27:40.050Z,6.40
2023-03-13T20:30:08.596Z,6.60
2023-03-13T20:32:36.731Z,6.33
2023-03-13T20:35:10.494Z,8.13
2023-03-13T20:37:37.891Z,8.60
2023-03-13T20:40:06.839Z,7.07
2023-03-13T20:42:34.761Z,8.17
2023-03-13T20:45:02.175Z,8.13
2023-03-13T20:47:29.518Z,8.73
2023-03-13T20:49:56.883Z,9.40
2023-03-13T20:52:24.006Z,7.23
2023-03-13T20:54:51.438Z,6.57
2023-03-13T20:57:19.978Z,11.07
2023-03-13T20:59:47.369Z,6.57
2023-03-13T21:02:14.588Z,6.17
2023-03-13T21:04:42.155Z,8.67
2023-03-13T21:07:09.653Z,9.80
2023-03-13T21:09:36.966Z,6.80
2023-03-13T21:12:04.737Z,10.50
2023-03-13T21:14:33.605Z,6.77
2023-03-13T21:17:00.863Z,8.83
2023-03-13T21:19:28.265Z,7.37
2023-03-13T21:21:55.393Z,9.10
2023-03-13T21:24:22.746Z,5.77
2023-03-13T21:26:50.129Z,9.80
2023-03-13T21:29:17.910Z,4.27
2023-03-13T21:31:45.317Z,6.30
2023-03-13T21:34:12.747Z,7.60
2023-03-13T21:36:39.960Z,13.40
2023-03-13T21:39:08.452Z,10.40
2023-03-13T21:41:36.038Z,7.93
2023-03-13T21:44:03.715Z,11.97
2023-03-13T21:46:33.815Z,8.87
2023-03-13T21:49:01.485Z,6.00
2023-03-13T21:51:29.396Z,8.03
2023-03-13T21:53:56.826Z,11.03
2023-03-13T21:56:24.297Z,5.83
2023-03-13T21:58:51.443Z,11.43
2023-03-13T22:01:18.834Z,11.30
2023-03-13T22:03:45.978Z,7.50
2023-03-13T22:06:15.518Z,10.73
2023-03-13T22:08:43.483Z,5.03
2023-03-13T22:11:11.394Z,4.87
2023-03-13T22:13:38.577Z,9.17
2023-03-13T22:16:06.334Z,8.87
2023-03-13T22:18:33.462Z,9.07
2023-03-13T22:21:00.989Z,6.60
2023-03-13T22:23:28.509Z,4.17
2023-03-13T22:25:57.823Z,7.57
2023-03-13T22:28:25.931Z,3.70
2023-03-13T22:30:53.079Z,5.77
2023-03-13T22:33:20.813Z,8.90
2023-03-13T22:35:52.679Z,6.37
2023-03-13T22:38:20.788Z,6.27
2023-03-13T22:40:49.453Z,6.73
2023-03-13T22:43:16.843Z,4.43
2023-03-13T22:45:44.287Z,4.53
2023-03-13T22:48:11.726Z,8.07
2023-03-13T22:50:38.811Z,5.67
2023-03-13T22:53:06.260Z,4.83
2023-03-13T22:55:34.094Z,5.97
2023-03-13T22:58:01.429Z,6.60
2023-03-13T23:00:28.815Z,3.90
2023-03-13T23:02:56.055Z,5.10
2023-03-13T23:05:23.436Z,6.43
2023-03-13T23:07:51.024Z,3.53
2023-03-13T23:10:19.246Z,6.60
2023-03-13T23:12:46.368Z,4.93
2023-03-13T23:15:13.468Z,6.57
2023-03-13T23:17:40.838Z,5.10
2023-03-13T23:20:13.361Z,8.50
2023-03-13T23:22:42.890Z,5.17
2023-03-13T23:25:12.248Z,4.87
2023-03-13T23:27:39.508Z,6.20
2023-03-13T23:30:09.386Z,8.20
2023-03-13T23:32:38.743Z,6.00
2023-03-13T23:35:07.564Z,4.53
2023-03-13T23:37:35.547Z,4.13
2023-03-13T23:40:04.932Z,5.17
2023-03-13T23:42:32.345Z,3.73
2023-03-13T23:45:00.793Z,4.80
2023-03-13T23:47:29.992Z,3.50
2023-03-13T23:49:57.374Z,3.83
2023-03-13T23:52:24.577Z,3.27
2023-03-13T23:54:52.680Z,2.93
2023-03-13T23:57:20.472Z,3.57
2023-03-13T23:59:49.271Z,3.13
